Time;durP1;ratioP1;P1;durP2;ratioP2;P2;SDS_P1;SDS_P2;PMS_P1;PMS_P2;Temp;Humidity;BMP_temperature;BMP_pressure;BME280_temperature;BME280_humidity;BME280_pressure;Samples;Min_cycle;Max_cycle;Signal;HPM_P1;HPM_P2
2023/01/02 00:00:16;;;;;;;19.80;15.40;;;;;;;24.86;28.93;101810.73;101512;1322;69203;-86
2023/01/02 00:02:41;;;;;;;17.50;14.50;;;;;;;24.87;28.80;101812.28;101407;1319;69269;-85
2023/01/02 00:05:07;;;;;;;18.00;14.60;;;;;;;24.87;28.89;101819.44;101193;1329;67694;-86
2023/01/02 00:07:33;;;;;;;20.90;14.80;;;;;;;24.88;28.87;101819.18;101632;1328;69155;-86
2023/01/02 00:09:58;;;;;;;18.30;14.40;;;;;;;24.88;28.92;101822.89;101194;1324;71205;-85
2023/01/02 00:12:23;;;;;;;17.90;14.60;;;;;;;24.87;28.84;101825.11;101634;1327;69264;-86
2023/01/02 00:14:49;;;;;;;19.40;14.30;;;;;;;24.88;28.65;101832.20;101577;1320;69301;-90
2023/01/02 00:17:17;;;;;;;17.30;14.70;;;;;;;24.88;28.92;101838.59;101648;1324;69178;-86
2023/01/02 00:19:43;;;;;;;19.70;15.10;;;;;;;24.87;28.92;101836.58;101074;1330;74343;-85
2023/01/02 00:22:08;;;;;;;18.40;15.10;;;;;;;24.88;28.86;101836.80;101532;1319;69098;-85
2023/01/02 00:24:34;;;;;;;18.50;14.90;;;;;;;24.88;28.85;101840.81;101609;1319;69209;-86
2023/01/02 00:26:59;;;;;;;19.20;15.50;;;;;;;24.89;28.77;101843.17;101243;1324;69227;-86
2023/01/02 00:29:25;;;;;;;18.30;14.50;;;;;;;24.89;28.64;101837.52;101633;1326;69357;-85
2023/01/02 00:31:50;;;;;;;18.70;15.20;;;;;;;24.89;28.60;101841.80;101657;1328;69225;-85
2023/01/02 00:34:16;;;;;;;17.70;14.90;;;;;;;24.90;28.87;101840.86;101745;1325;69456;-86
2023/01/02 00:36:41;;;;;;;18.80;15.10;;;;;;;24.90;28.89;101841.48;101514;1320;69157;-86
2023/01/02 00:39:06;;;;;;;19.80;15.70;;;;;;;24.90;28.92;101836.81;101530;1322;69229;-86
2023/01/02 00:41:32;;;;;;;19.00;15.70;;;;;;;24.90;28.92;101834.85;101507;1328;69130;-86
2023/01/02 00:43:58;;;;;;;19.60;15.10;;;;;;;24.91;28.81;101830.79;101148;1327;69259;-88
2023/01/02 00:46:23;;;;;;;18.90;15.00;;;;;;;24.91;28.66;101829.55;101455;1326;69155;-87
2023/01/02 00:48:48;;;;;;;18.50;15.30;;;;;;;24.92;28.72;101834.44;101594;1319;69247;-88
2023/01/02 00:51:14;;;;;;;18.40;15.20;;;;;;;24.92;28.84;101829.75;101565;1320;69138;-87
2023/01/02 00:53:39;;;;;;;18.00;15.10;;;;;;;24.91;28.82;101825.48;101515;1328;67178;-92
2023/01/02 00:56:05;;;;;;;18.30;15.40;;;;;;;24.92;28.87;101826.36;101072;1322;69635;-88
2023/01/02 00:58:31;;;;;;;20.60;15.50;;;;;;;24.92;28.81;101827.48;101619;1324;69144;-87
2023/01/02 01:00:56;;;;;;;19.10;15.20;;;;;;;24.92;28.83;101829.09;101535;1325;69285;-88
2023/01/02 01:03:21;;;;;;;18.90;15.20;;;;;;;24.92;28.90;101829.09;101341;1328;69174;-88
2023/01/02 01:05:47;;;;;;;21.70;15.50;;;;;;;24.92;28.67;101829.91;101536;1320;69307;-89
2023/01/02 01:08:12;;;;;;;20.40;16.40;;;;;;;24.91;28.73;101826.46;100937;1322;69170;-87
2023/01/02 01:10:38;;;;;;;18.30;15.50;;;;;;;24.91;28.82;101818.79;101434;1327;69571;-87
2023/01/02 01:13:04;;;;;;;18.20;15.30;;;;;;;24.92;28.57;101815.44;100897;1324;69229;-88
2023/01/02 01:15:29;;;;;;;18.20;15.50;;;;;;;24.91;28.82;101811.17;101378;1326;69545;-88
2023/01/02 01:17:55;;;;;;;20.10;15.80;;;;;;;24.91;28.70;101804.94;101391;1320;69207;-88
2023/01/02 01:20:20;;;;;;;20.90;15.30;;;;;;;24.90;28.83;101798.60;101355;1326;69246;-88
2023/01/02 01:22:46;;;;;;;17.70;14.60;;;;;;;24.91;28.58;101794.79;101063;1322;69210;-87
2023/01/02 01:25:11;;;;;;;17.50;15.00;;;;;;;24.91;28.70;101792.37;101498;1327;69224;-88
2023/01/02 01:27:37;;;;;;;19.60;15.70;;;;;;;24.90;28.56;101788.66;101500;1320;69154;-87
2023/01/02 01:30:04;;;;;;;17.80;15.10;;;;;;;24.90;28.67;101788.05;101518;1324;69190;-88
2023/01/02 01:32:29;;;;;;;18.60;15.20;;;;;;;24.90;28.65;101788.35;101559;1327;69154;-92
2023/01/02 01:34:55;;;;;;;18.40;15.20;;;;;;;24.89;28.70;101782.02;101032;1327;69278;-88
2023/01/02 01:37:20;;;;;;;18.80;15.70;;;;;;;24.89;28.84;101778.31;101579;1324;69187;-88
2023/01/02 01:39:46;;;;;;;22.10;16.20;;;;;;;24.90;28.64;101780.22;101451;1322;69152;-88
2023/01/02 01:42:14;;;;;;;20.40;15.60;;;;;;;24.89;28.49;101781.70;100939;1327;69224;-88
2023/01/02 01:44:50;;;;;;;20.60;16.20;;;;;;;24.89;28.48;101784.44;101374;1327;69206;-88
2023/01/02 01:47:21;;;;;;;18.90;15.10;;;;;;;24.89;28.59;101783.11;101261;1324;69106;-87
2023/01/02 01:49:49;;;;;;;20.00;14.60;;;;;;;24.89;28.54;101782.70;101496;1323;69039;-88
2023/01/02 01:52:18;;;;;;;19.30;15.10;;;;;;;24.89;28.68;101779.55;101439;1325;73394;-88
2023/01/02 01:54:52;;;;;;;19.30;15.40;;;;;;;24.89;28.76;101777.38;101145;1328;69324;-87
2023/01/02 01:57:49;;;;;;;18.70;15.70;;;;;;;24.88;28.43;101778.05;101233;1322;69123;-87
2023/01/02 02:00:14;;;;;;;19.60;16.00;;;;;;;24.87;28.58;101774.70;101523;1319;67713;-88
2023/01/02 02:02:41;;;;;;;18.50;15.50;;;;;;;24.87;28.50;101770.02;101426;1329;69248;-88
2023/01/02 02:05:08;;;;;;;20.00;15.90;;;;;;;24.88;28.67;101770.23;101451;1326;69216;-87
2023/01/02 02:07:33;;;;;;;20.50;15.50;;;;;;;24.88;28.42;101770.88;101258;1327;69225;-88
2023/01/02 02:10:02;;;;;;;19.20;15.90;;;;;;;24.87;28.65;101767.74;101454;1322;69208;-87
2023/01/02 02:12:28;;;;;;;19.50;15.90;;;;;;;24.87;28.63;101767.55;101507;1320;69057;-87
2023/01/02 02:14:53;;;;;;;18.70;15.50;;;;;;;24.87;28.55;101770.94;101439;1327;67981;-88
2023/01/02 02:17:25;;;;;;;19.20;15.30;;;;;;;24.86;28.48;101771.61;101370;1327;69251;-93
2023/01/02 02:20:05;;;;;;;18.30;15.30;;;;;;;24.86;28.55;101772.59;101378;1320;69058;-88
2023/01/02 02:22:56;;;;;;;18.80;15.90;;;;;;;24.86;28.60;101772.68;101473;1320;69159;-87
2023/01/02 02:25:45;;;;;;;;;;;;;;;24.86;28.45;101771.34;101485;1327;69059;-88
2023/01/02 02:28:49;;;;;;;19.80;14.40;;;;;;;24.84;28.56;101769.13;101486;1327;68988;-87
2023/01/02 02:31:39;;;;;;;19.20;14.60;;;;;;;24.84;28.67;101767.83;101450;1319;73559;-87
2023/01/02 02:34:12;;;;;;;19.20;15.50;;;;;;;24.83;28.64;101771.59;101219;1325;69132;-87
2023/01/02 02:36:40;;;;;;;20.00;15.40;;;;;;;24.84;28.51;101777.30;101370;1319;69063;-88
2023/01/02 02:39:16;;;;;;;20.20;15.10;;;;;;;24.84;28.36;101781.31;101516;1327;69155;-87
2023/01/02 02:41:51;;;;;;;17.60;15.00;;;;;;;24.84;28.41;101783.44;101436;1320;67589;-88
2023/01/02 02:44:33;;;;;;;18.10;14.90;;;;;;;24.84;28.51;101788.58;101000;1320;545302;-93
2023/01/02 02:46:59;;;;;;;17.40;15.50;;;;;;;24.84;28.50;101789.30;101311;1319;69175;-87
2023/01/02 02:49:37;;;;;;;18.60;14.90;;;;;;;24.84;28.49;101783.80;101436;1323;69004;-87
2023/01/02 02:52:26;;;;;;;20.90;15.40;;;;;;;24.85;28.38;101779.58;101474;1323;69037;-87
2023/01/02 02:55:06;;;;;;;18.90;15.40;;;;;;;24.85;28.39;101779.27;101522;1327;69200;-87
2023/01/02 02:57:32;;;;;;;17.20;15.30;;;;;;;24.85;28.40;101779.00;101426;1325;73692;-87
2023/01/02 02:59:57;;;;;;;17.50;14.60;;;;;;;24.84;28.51;101778.85;100826;1327;69288;-87
2023/01/02 03:02:22;;;;;;;17.90;14.80;;;;;;;24.84;28.53;101782.25;100812;1324;69249;-88
2023/01/02 03:04:53;;;;;;;18.90;15.60;;;;;;;24.84;28.33;101785.44;101321;1323;69754;-87
2023/01/02 03:07:27;;;;;;;16.80;14.50;;;;;;;24.84;28.28;101787.29;101019;1327;69132;-88
2023/01/02 03:10:11;;;;;;;18.40;14.80;;;;;;;24.84;28.35;101790.89;101275;1319;74450;-87
2023/01/02 03:12:42;;;;;;;17.70;15.30;;;;;;;24.83;28.40;101790.69;101547;1319;69245;-88
2023/01/02 03:15:23;;;;;;;21.20;15.40;;;;;;;24.83;28.36;101793.11;101447;1328;69156;-87
2023/01/02 03:17:52;;;;;;;;;;;;;;;24.83;28.39;101793.84;101606;1325;69062;-88
2023/01/02 03:20:18;;;;;;;19.40;15.40;;;;;;;24.82;28.37;101793.05;101529;1327;69112;-87
2023/01/02 03:22:46;;;;;;;18.50;14.70;;;;;;;24.82;28.28;101792.23;101448;1326;69636;-87
2023/01/02 03:25:11;;;;;;;19.10;15.50;;;;;;;24.82;28.31;101790.52;101369;1326;67732;-87
2023/01/02 03:27:40;;;;;;;18.80;15.60;;;;;;;24.83;28.28;101791.45;100819;1329;69266;-87
2023/01/02 03:30:08;;;;;;;19.20;14.80;;;;;;;24.82;28.11;101790.94;101297;1326;69110;-88
2023/01/02 03:32:43;;;;;;;18.70;15.70;;;;;;;24.82;28.35;101791.87;100947;1325;69197;-88
2023/01/02 03:35:11;;;;;;;19.00;16.30;;;;;;;24.83;28.28;101787.48;101403;1328;74387;-91
2023/01/02 03:37:38;;;;;;;19.00;15.40;;;;;;;24.82;28.22;101783.16;101257;1327;69216;-87
2023/01/02 03:40:07;;;;;;;22.00;16.70;;;;;;;24.82;28.07;101783.58;101371;1322;69233;-87
2023/01/02 03:42:38;;;;;;;18.90;16.00;;;;;;;24.82;28.16;101784.45;101303;1326;69043;-88
2023/01/02 03:45:05;;;;;;;;;;;;;;;24.82;28.23;101787.95;101289;1320;69136;-88
2023/01/02 03:47:41;;;;;;;20.70;16.00;;;;;;;24.81;28.30;101789.80;101522;1319;73613;-88
2023/01/02 03:50:14;;;;;;;19.00;15.50;;;;;;;24.80;28.18;101787.08;101499;1320;69212;-92
2023/01/02 03:52:39;;;;;;;20.60;16.50;;;;;;;24.81;28.18;101787.54;101349;1321;69063;-88
2023/01/02 03:55:05;;;;;;;19.30;16.30;;;;;;;24.81;28.11;101782.29;100982;1322;69641;-87
2023/01/02 03:57:49;;;;;;;21.10;15.90;;;;;;;24.80;28.10;101782.95;101446;1327;69287;-87
2023/01/02 04:00:16;;;;;;;20.40;16.70;;;;;;;24.81;28.08;101785.52;101539;1324;73535;-88
2023/01/02 04:02:45;;;;;;;21.80;16.70;;;;;;;24.80;28.10;101780.53;101450;1326;69137;-87
2023/01/02 04:05:21;;;;;;;20.80;16.10;;;;;;;24.81;28.20;101784.70;101422;1318;69173;-88
2023/01/02 04:07:52;;;;;;;19.40;16.10;;;;;;;24.81;28.15;101787.54;101410;1327;69138;-87
2023/01/02 04:10:17;;;;;;;22.90;16.70;;;;;;;24.81;28.19;101792.94;101477;1327;69525;-87
2023/01/02 04:12:44;;;;;;;19.80;16.20;;;;;;;24.81;28.10;101788.00;101380;1325;70457;-87
2023/01/02 04:15:11;;;;;;;18.70;16.10;;;;;;;24.81;28.11;101788.00;101404;1326;69209;-88
2023/01/02 04:17:43;;;;;;;20.30;16.40;;;;;;;24.80;28.16;101785.38;101351;1322;67877;-88
2023/01/02 04:20:11;;;;;;;21.80;16.70;;;;;;;24.81;27.99;101785.83;101453;1320;69183;-88
2023/01/02 04:22:49;;;;;;;20.00;16.40;;;;;;;24.81;28.08;101786.09;100888;1327;69085;-87
2023/01/02 04:25:16;;;;;;;17.50;15.00;;;;;;;24.80;27.97;101791.04;101125;1327;74345;-87
2023/01/02 04:27:52;;;;;;;20.20;16.30;;;;;;;24.80;27.94;101791.70;101285;1327;69229;-88
2023/01/02 04:30:17;;;;;;;19.50;15.80;;;;;;;24.80;28.15;101789.90;101568;1319;69055;-85
2023/01/02 04:32:44;;;;;;;21.40;16.40;;;;;;;24.80;28.08;101785.63;101616;1325;69312;-86
2023/01/02 04:35:12;;;;;;;21.60;16.60;;;;;;;24.80;27.92;101784.81;101703;1325;69181;-86
2023/01/02 04:37:39;;;;;;;19.30;15.70;;;;;;;24.81;27.81;101785.00;101037;1326;74447;-85
2023/01/02 04:40:28;;;;;;;19.20;15.70;;;;;;;24.81;28.03;101792.93;101527;1328;68947;-86
2023/01/02 04:42:54;;;;;;;20.40;16.40;;;;;;;24.81;28.00;101785.73;101661;1320;69295;-86
2023/01/02 04:45:20;;;;;;;21.60;16.30;;;;;;;24.81;27.81;101782.75;101178;1329;69257;-86
2023/01/02 04:47:48;;;;;;;20.80;16.30;;;;;;;24.81;27.89;101781.27;101511;1322;69307;-86
2023/01/02 04:50:14;;;;;;;20.30;15.80;;;;;;;24.82;27.95;101782.85;101586;1317;73467;-86
2023/01/02 04:52:39;;;;;;;19.50;16.10;;;;;;;24.82;28.02;101781.00;101508;1328;69198;-85
2023/01/02 04:55:07;;;;;;;20.30;15.40;;;;;;;24.82;28.00;101785.33;101557;1325;69113;-86
2023/01/02 04:57:32;;;;;;;18.60;15.60;;;;;;;24.82;27.94;101783.63;101624;1322;69173;-85
2023/01/02 04:59:58;;;;;;;19.80;15.90;;;;;;;24.83;27.90;101789.90;101079;1329;69309;-86
2023/01/02 05:02:23;;;;;;;18.00;15.30;;;;;;;24.83;28.00;101795.45;101542;1323;69211;-86
2023/01/02 05:04:49;;;;;;;20.30;15.90;;;;;;;24.83;27.88;101796.45;101576;1328;69314;-91
2023/01/02 05:07:14;;;;;;;20.40;15.90;;;;;;;24.83;27.81;101795.73;101139;1329;69217;-86
2023/01/02 05:09:40;;;;;;;18.40;15.30;;;;;;;24.83;27.86;101791.09;101182;1330;69247;-86
2023/01/02 05:12:05;;;;;;;17.40;15.10;;;;;;;24.83;27.95;101789.39;101622;1322;69213;-86
2023/01/02 05:14:31;;;;;;;21.50;15.60;;;;;;;24.84;27.90;101794.45;101609;1328;69238;-86
2023/01/02 05:16:56;;;;;;;19.50;15.90;;;;;;;24.84;27.85;101790.29;101563;1327;69297;-86
2023/01/02 05:19:21;;;;;;;17.60;15.20;;;;;;;24.84;27.90;101792.90;101036;1323;66975;-85
2023/01/02 05:24:31;;;;;;;18.50;14.90;;;;;;;24.83;27.96;101791.41;101817;1324;69095;-86
2023/01/02 05:26:57;;;;;;;20.80;14.90;;;;;;;24.85;28.00;101795.27;101528;1323;69211;-85
2023/01/02 05:29:22;;;;;;;19.20;15.40;;;;;;;24.84;27.72;101796.05;101745;1317;69159;-85
2023/01/02 05:31:48;;;;;;;19.10;15.10;;;;;;;24.85;27.64;101793.16;101038;1327;69255;-90
2023/01/02 05:34:13;;;;;;;18.30;15.20;;;;;;;24.85;27.87;101799.23;101554;1325;69229;-86
2023/01/02 05:36:39;;;;;;;19.80;15.10;;;;;;;24.84;27.81;101793.92;101566;1317;69353;-86
2023/01/02 05:39:10;;;;;;;17.50;15.50;;;;;;;24.85;27.84;101795.73;101489;1327;67720;-86
2023/01/02 05:41:38;;;;;;;17.70;14.90;;;;;;;24.84;27.82;101792.55;101688;1326;69031;-86
2023/01/02 05:44:07;;;;;;;19.10;15.20;;;;;;;24.84;27.87;101793.36;101522;1327;73505;-86
2023/01/02 05:46:33;;;;;;;18.10;15.20;;;;;;;24.84;27.96;101796.20;101518;1327;69206;-89
2023/01/02 05:48:58;;;;;;;19.70;15.80;;;;;;;24.85;27.78;101797.44;101617;1321;69161;-86
2023/01/02 05:51:24;;;;;;;22.70;16.00;;;;;;;24.85;27.68;101797.13;101387;1324;69222;-88
2023/01/02 05:53:52;;;;;;;21.00;15.30;;;;;;;24.85;27.65;101796.73;101449;1324;69192;-88
2023/01/02 05:56:17;;;;;;;18.30;14.50;;;;;;;24.85;27.69;101800.27;101587;1321;69088;-88
2023/01/02 05:58:44;;;;;;;19.20;15.40;;;;;;;24.85;27.79;101800.38;101945;1328;69169;-89
2023/01/02 06:01:12;;;;;;;18.20;14.80;;;;;;;24.85;27.83;101798.83;101247;1327;69226;-88
2023/01/02 06:03:37;;;;;;;21.40;14.80;;;;;;;24.85;27.55;101795.17;101460;1327;69220;-88
2023/01/02 06:06:08;;;;;;;17.40;14.70;;;;;;;24.85;27.76;101794.26;101401;1320;69528;-88
2023/01/02 06:08:33;;;;;;;18.70;14.90;;;;;;;24.85;27.67;101789.73;101348;1320;73563;-88
2023/01/02 06:10:59;;;;;;;20.50;15.30;;;;;;;24.85;27.71;101790.55;101496;1330;69660;-86
2023/01/02 06:13:25;;;;;;;20.10;15.20;;;;;;;24.85;27.52;101785.45;101145;1330;69158;-86
2023/01/02 06:15:50;;;;;;;18.50;14.90;;;;;;;24.85;27.72;101784.46;101676;1327;69243;-86
2023/01/02 06:18:16;;;;;;;17.70;14.80;;;;;;;24.85;27.71;101788.17;101689;1324;69350;-85
2023/01/02 06:20:41;;;;;;;17.90;14.40;;;;;;;24.85;27.65;101790.70;101567;1320;69181;-86
2023/01/02 06:23:06;;;;;;;17.70;15.30;;;;;;;24.86;27.55;101796.02;101565;1325;69220;-86
2023/01/02 06:25:33;;;;;;;17.50;15.30;;;;;;;24.86;27.71;101800.98;101588;1326;69255;-91
2023/01/02 06:27:58;;;;;;;19.40;15.40;;;;;;;24.86;27.76;101801.88;101181;1329;69261;-86
2023/01/02 06:30:23;;;;;;;21.10;15.60;;;;;;;24.86;27.67;101801.15;101729;1325;69152;-85
2023/01/02 06:32:49;;;;;;;20.80;15.60;;;;;;;24.86;27.69;101803.89;101640;1328;69136;-86
2023/01/02 06:35:14;;;;;;;18.20;15.00;;;;;;;24.86;27.92;101805.59;101535;1323;69279;-86
2023/01/02 06:37:43;;;;;;;18.30;15.40;;;;;;;24.86;27.85;101805.27;101720;1327;69235;-86
2023/01/02 06:40:10;;;;;;;20.10;15.90;;;;;;;24.86;27.64;101803.98;101564;1324;69207;-86
2023/01/02 06:42:35;;;;;;;18.00;15.40;;;;;;;24.86;27.62;101802.59;101303;1322;69148;-85
2023/01/02 06:45:01;;;;;;;20.40;15.50;;;;;;;24.87;27.61;101803.27;101715;1320;69133;-86
2023/01/02 06:47:26;;;;;;;19.70;15.40;;;;;;;24.87;27.61;101801.73;101628;1324;69297;-86
2023/01/02 06:49:52;;;;;;;19.40;15.40;;;;;;;24.88;27.65;101802.35;101693;1328;69209;-86
2023/01/02 06:52:17;;;;;;;17.50;14.70;;;;;;;24.88;27.63;101799.36;101563;1328;69171;-87
2023/01/02 06:54:43;;;;;;;21.00;16.10;;;;;;;24.87;27.49;101798.33;101497;1323;69254;-86
2023/01/02 06:57:08;;;;;;;19.00;15.40;;;;;;;24.88;27.61;101800.30;101662;1319;69183;-86
2023/01/02 06:59:34;;;;;;;17.60;15.00;;;;;;;24.89;27.76;101800.76;101696;1328;69247;-86
2023/01/02 07:01:59;;;;;;;18.40;15.00;;;;;;;24.89;27.74;101803.17;101192;1328;69193;-86
2023/01/02 07:04:24;;;;;;;18.90;15.50;;;;;;;24.89;27.87;101810.02;101435;1328;69250;-90
2023/01/02 07:06:50;;;;;;;19.50;15.30;;;;;;;24.90;27.84;101807.05;101088;1316;69209;-86
2023/01/02 07:09:15;;;;;;;17.70;14.90;;;;;;;24.90;27.62;101806.48;101652;1325;69152;-85
2023/01/02 07:11:41;;;;;;;18.40;15.50;;;;;;;24.90;27.72;101802.41;101110;1330;69161;-85
2023/01/02 07:14:06;;;;;;;19.50;15.00;;;;;;;24.91;27.65;101805.14;101611;1325;69165;-85
2023/01/02 07:16:32;;;;;;;20.80;15.20;;;;;;;24.91;27.77;101805.20;100919;1328;69314;-87
2023/01/02 07:18:57;;;;;;;18.20;14.70;;;;;;;24.91;27.60;101800.57;101315;1328;69199;-86
2023/01/02 07:21:23;;;;;;;19.30;15.20;;;;;;;24.91;27.68;101801.70;101350;1319;69218;-86
2023/01/02 07:23:48;;;;;;;18.50;15.10;;;;;;;24.93;27.80;101805.55;101028;1327;69153;-86
2023/01/02 07:26:14;;;;;;;19.90;14.80;;;;;;;24.93;27.65;101808.86;101489;1325;69185;-86
2023/01/02 07:28:40;;;;;;;19.10;14.80;;;;;;;24.95;27.64;101810.77;101506;1326;69668;-87
2023/01/02 07:31:10;;;;;;;17.30;14.20;;;;;;;24.97;27.73;101815.00;101420;1330;69256;-86
2023/01/02 07:33:36;;;;;;;19.70;14.80;;;;;;;24.98;27.53;101814.90;101175;1330;69607;-86
2023/01/02 07:36:06;;;;;;;18.00;14.90;;;;;;;25.01;27.73;101814.70;101426;1322;69234;-88
2023/01/02 07:38:32;;;;;;;18.70;14.90;;;;;;;25.03;27.60;101817.24;101357;1330;69535;-86
2023/01/02 07:40:57;;;;;;;18.10;14.90;;;;;;;25.05;27.54;101819.05;101150;1329;69253;-87
2023/01/02 07:43:23;;;;;;;18.60;15.00;;;;;;;25.07;27.49;101812.88;101612;1325;69218;-87
2023/01/02 07:45:48;;;;;;;19.50;15.30;;;;;;;25.09;27.44;101812.98;101019;1325;69202;-86
2023/01/02 07:48:14;;;;;;;19.50;15.60;;;;;;;25.11;27.64;101816.09;101046;1327;69258;-86
2023/01/02 07:50:39;;;;;;;16.90;14.60;;;;;;;25.13;27.52;101817.03;101433;1330;69274;-86
2023/01/02 07:53:05;;;;;;;17.90;14.30;;;;;;;25.14;27.78;101824.55;101564;1324;69342;-86
2023/01/02 07:55:30;;;;;;;19.40;15.40;;;;;;;25.15;27.67;101830.68;101428;1328;69223;-86
2023/01/02 07:57:56;;;;;;;17.70;14.90;;;;;;;25.17;27.60;101833.73;100931;1316;69751;-88
2023/01/02 08:00:22;;;;;;;18.20;14.50;;;;;;;25.18;27.64;101832.44;101375;1324;69075;-88
2023/01/02 08:02:52;;;;;;;17.40;14.60;;;;;;;25.19;27.49;101831.87;101294;1325;69206;-88
2023/01/02 08:05:17;;;;;;;20.20;14.90;;;;;;;25.20;27.63;101834.46;101039;1330;69193;-86
2023/01/02 08:07:46;;;;;;;17.90;14.50;;;;;;;25.22;27.39;101829.92;101463;1325;69303;-86
2023/01/02 08:10:11;;;;;;;17.70;14.60;;;;;;;25.22;27.58;101836.38;101406;1318;69165;-91
2023/01/02 08:12:37;;;;;;;20.40;14.80;;;;;;;25.24;27.69;101843.08;100919;1325;69356;-86
2023/01/02 08:15:03;;;;;;;18.00;14.00;;;;;;;25.24;27.75;101847.09;101516;1320;69278;-86
2023/01/02 08:17:29;;;;;;;17.60;14.00;;;;;;;25.24;27.53;101842.30;101559;1325;69652;-86
2023/01/02 08:19:55;;;;;;;16.50;14.00;;;;;;;25.25;27.47;101844.63;101534;1325;69184;-86
2023/01/02 08:22:20;;;;;;;19.40;14.50;;;;;;;25.26;27.48;101845.87;101415;1328;69156;-86
2023/01/02 08:24:46;;;;;;;17.90;14.70;;;;;;;25.27;27.64;101845.61;101396;1324;74656;-86
2023/01/02 08:27:11;;;;;;;18.50;14.30;;;;;;;25.28;27.62;101843.60;100939;1330;69290;-86
2023/01/02 08:29:37;;;;;;;19.40;14.30;;;;;;;25.28;27.53;101839.84;101392;1325;69243;-86
2023/01/02 08:32:03;;;;;;;18.20;14.40;;;;;;;25.29;27.62;101842.15;101433;1324;69150;-86
2023/01/02 08:34:28;;;;;;;16.90;14.20;;;;;;;25.30;27.56;101838.45;101515;1318;69238;-86
2023/01/02 08:36:54;;;;;;;17.40;14.10;;;;;;;25.31;27.68;101839.29;101393;1328;69223;-88
2023/01/02 08:39:22;;;;;;;17.50;14.20;;;;;;;25.31;27.80;101840.30;101373;1325;69498;-88
2023/01/02 08:41:47;;;;;;;18.50;14.70;;;;;;;25.31;27.45;101837.27;101283;1326;69119;-88
2023/01/02 08:44:14;;;;;;;16.80;13.80;;;;;;;25.32;27.64;101840.21;101287;1326;69198;-88
2023/01/02 08:46:40;;;;;;;18.60;14.40;;;;;;;25.32;27.68;101843.36;101480;1333;69154;-85
2023/01/02 08:49:06;;;;;;;18.40;14.30;;;;;;;25.33;27.71;101844.04;101488;1326;69180;-91
2023/01/02 08:51:31;;;;;;;16.70;14.30;;;;;;;25.34;27.69;101844.66;101615;1325;69623;-86
2023/01/02 08:53:57;;;;;;;15.10;13.30;;;;;;;25.34;27.59;101844.86;101177;1328;69128;-86
2023/01/02 08:56:24;;;;;;;16.30;13.80;;;;;;;25.35;27.88;101844.04;101089;1331;69421;-86
2023/01/02 08:58:58;;;;;;;15.90;13.50;;;;;;;25.36;27.55;101844.20;101613;1322;69136;-86
2023/01/02 09:01:25;;;;;;;15.00;13.10;;;;;;;25.36;27.60;101843.43;101484;1320;69136;-86
2023/01/02 09:03:51;;;;;;;17.60;14.00;;;;;;;25.37;27.86;101842.45;101668;1319;69105;-90
2023/01/02 09:06:17;;;;;;;17.90;14.10;;;;;;;25.37;27.87;101839.52;101205;1315;69322;-86
2023/01/02 09:08:42;;;;;;;17.50;14.30;;;;;;;25.38;27.62;101838.17;101672;1325;69146;-85
2023/01/02 09:11:19;;;;;;;16.80;13.60;;;;;;;25.38;27.92;101841.02;101630;1326;69241;-86
2023/01/02 09:13:44;;;;;;;20.60;13.60;;;;;;;25.39;27.82;101836.79;101587;1325;69103;-86
2023/01/02 09:16:10;;;;;;;16.90;14.10;;;;;;;25.40;27.69;101830.71;101150;1324;69305;-86
2023/01/02 09:18:36;;;;;;;17.50;13.60;;;;;;;25.41;27.82;101831.33;101097;1328;69152;-85
2023/01/02 09:21:02;;;;;;;17.90;13.80;;;;;;;25.42;28.07;101827.54;101604;1316;69322;-86
2023/01/02 09:23:27;;;;;;;16.80;13.90;;;;;;;25.43;27.93;101822.39;101568;1318;69249;-85
2023/01/02 09:25:57;;;;;;;18.50;14.20;;;;;;;25.44;27.80;101821.67;101586;1324;69214;-86
2023/01/02 09:28:23;;;;;;;16.00;13.30;;;;;;;25.44;28.15;101817.76;101507;1325;69066;-86
2023/01/02 09:30:48;;;;;;;16.60;14.20;;;;;;;25.45;28.02;101813.85;101609;1330;69196;-90
2023/01/02 09:33:14;;;;;;;18.00;13.70;;;;;;;25.46;27.88;101811.95;101493;1326;67271;-86
2023/01/02 09:35:39;;;;;;;17.70;14.40;;;;;;;25.47;27.84;101809.38;101562;1325;69213;-86
2023/01/02 09:38:05;;;;;;;16.70;13.30;;;;;;;25.48;27.89;101800.41;101306;1330;69337;-86
2023/01/02 09:40:30;;;;;;;17.50;13.20;;;;;;;25.49;28.01;101800.84;101586;1320;69169;-86
2023/01/02 09:42:56;;;;;;;15.20;13.10;;;;;;;25.49;27.94;101797.39;101569;1327;69198;-86
2023/01/02 09:45:21;;;;;;;16.10;13.60;;;;;;;25.49;27.81;101790.88;101591;1328;69200;-85
2023/01/02 09:47:47;;;;;;;17.10;13.50;;;;;;;25.51;27.96;101788.09;101775;1323;69159;-86
2023/01/02 09:50:15;;;;;;;19.50;14.30;;;;;;;25.53;28.05;101781.77;101806;1317;73660;-86
2023/01/02 09:52:43;;;;;;;15.70;13.30;;;;;;;25.54;28.11;101775.06;101623;1320;69155;-86
2023/01/02 09:55:26;;;;;;;16.60;13.00;;;;;;;25.55;28.02;101775.16;101844;1323;69165;-86
2023/01/02 09:58:09;;;;;;;15.10;12.70;;;;;;;25.57;27.88;101768.77;102068;1319;67805;-88
2023/01/02 10:00:37;;;;;;;16.90;13.10;;;;;;;25.58;27.97;101760.03;101780;1327;69085;-86
2023/01/02 10:03:39;;;;;;;14.50;12.60;;;;;;;25.59;28.15;101758.58;101403;1322;73383;-86
2023/01/02 10:06:24;;;;;;;16.80;12.40;;;;;;;25.59;28.16;101757.96;101558;1327;68999;-86
2023/01/02 10:09:16;;;;;;;17.60;12.60;;;;;;;25.60;28.10;101758.17;101625;1327;69149;-85
2023/01/02 10:12:30;;;;;;;14.40;12.80;;;;;;;25.63;28.19;101758.95;101591;1327;69056;-86
2023/01/02 10:14:58;;;;;;;15.30;11.70;;;;;;;25.63;28.07;101756.58;101509;1320;69112;-86
2023/01/02 10:17:24;;;;;;;14.60;11.80;;;;;;;25.64;27.81;101752.45;101615;1325;73539;-86
2023/01/02 10:20:13;;;;;;;15.20;11.90;;;;;;;25.65;27.87;101746.36;101592;1325;69154;-86
2023/01/02 10:22:48;;;;;;;14.50;11.90;;;;;;;25.66;28.11;101741.11;101590;1321;69209;-86
2023/01/02 10:25:31;;;;;;;14.70;12.10;;;;;;;25.67;28.09;101737.35;101309;1330;67161;-86
2023/01/02 10:28:15;;;;;;;12.90;11.30;;;;;;;25.67;28.17;101740.90;101676;1323;69000;-86
2023/01/02 10:30:45;;;;;;;14.80;11.70;;;;;;;25.68;28.13;101734.36;101468;1324;73565;-90
2023/01/02 10:33:15;;;;;;;16.20;11.40;;;;;;;25.68;28.25;101729.82;101617;1327;69222;-86
2023/01/02 10:35:42;;;;;;;15.30;12.00;;;;;;;25.68;28.12;101721.84;101156;1327;70565;-86
2023/01/02 10:38:12;;;;;;;16.60;11.60;;;;;;;25.68;28.10;101719.05;101600;1327;69219;-86
2023/01/02 10:40:37;;;;;;;15.30;11.80;;;;;;;25.68;28.05;101708.13;101481;1325;68980;-86
2023/01/02 10:43:03;;;;;;;15.70;11.00;;;;;;;25.69;28.25;101704.73;101609;1327;69089;-86
2023/01/02 10:45:28;;;;;;;16.30;11.10;;;;;;;25.69;28.23;101700.19;101423;1324;69203;-91
2023/01/02 10:47:54;;;;;;;12.10;10.00;;;;;;;25.70;28.15;101700.50;101079;1327;69206;-86
2023/01/02 10:50:26;;;;;;;13.60;11.00;;;;;;;25.69;28.27;101702.00;101526;1328;69219;-86
2023/01/02 10:52:52;;;;;;;14.40;10.30;;;;;;;25.69;28.35;101699.27;101670;1319;73438;-86
2023/01/02 10:55:41;;;;;;;13.60;10.90;;;;;;;25.69;28.04;101696.88;101291;1329;69137;-86
2023/01/02 10:58:15;;;;;;;13.90;11.10;;;;;;;25.69;28.08;101694.05;101688;1328;69179;-86
2023/01/02 11:00:40;;;;;;;14.40;10.60;;;;;;;25.70;28.23;101693.13;101827;1327;69005;-87
2023/01/02 11:03:13;;;;;;;13.20;10.70;;;;;;;25.70;28.38;101689.77;101232;1327;69192;-86
2023/01/02 11:05:46;;;;;;;11.60;9.90;;;;;;;25.70;28.31;101688.28;101628;1327;73570;-86
2023/01/02 11:08:14;;;;;;;14.40;10.40;;;;;;;25.71;28.44;101686.11;101551;1327;69097;-86
2023/01/02 11:10:39;;;;;;;14.10;10.60;;;;;;;25.71;28.24;101680.91;101343;1329;69220;-86